sensor_id;sensor_type;location;lat;lon;timestamp;P1;durP1;ratioP1;P2;durP2;ratioP2
65755;SDS011;52489;47.502;18.940;2022-09-24T00:00:36;3.05;;;0.68;;
65755;SDS011;52489;47.502;18.940;2022-09-24T00:01:39;0.88;;;0.88;;
65755;SDS011;52489;47.502;18.940;2022-09-24T00:02:42;0.95;;;0.88;;
65755;SDS011;52489;47.502;18.940;2022-09-24T00:03:52;0.70;;;0.70;;
65755;SDS011;52489;47.502;18.940;2022-09-24T00:04:57;0.60;;;0.60;;
65755;SDS011;52489;47.502;18.940;2022-09-24T00:06:01;0.62;;;0.62;;
65755;SDS011;52489;47.502;18.940;2022-09-24T00:07:05;0.95;;;0.90;;
65755;SDS011;52489;47.502;18.940;2022-09-24T00:08:08;0.52;;;0.52;;
65755;SDS011;52489;47.502;18.940;2022-09-24T00:09:12;0.68;;;0.68;;
65755;SDS011;52489;47.502;18.940;2022-09-24T00:10:16;0.88;;;0.62;;
65755;SDS011;52489;47.502;18.940;2022-09-24T00:11:19;0.73;;;0.73;;
65755;SDS011;52489;47.502;18.940;2022-09-24T00:12:23;2.28;;;1.15;;
65755;SDS011;52489;47.502;18.940;2022-09-24T00:13:27;0.82;;;0.82;;
65755;SDS011;52489;47.502;18.940;2022-09-24T00:14:31;0.77;;;0.77;;
65755;SDS011;52489;47.502;18.940;2022-09-24T00:15:41;0.70;;;0.70;;
65755;SDS011;52489;47.502;18.940;2022-09-24T00:16:46;0.70;;;0.70;;
65755;SDS011;52489;47.502;18.940;2022-09-24T00:17:49;1.62;;;0.90;;
65755;SDS011;52489;47.502;18.940;2022-09-24T00:18:52;0.73;;;0.73;;
65755;SDS011;52489;47.502;18.940;2022-09-24T00:19:55;1.25;;;1.15;;
65755;SDS011;52489;47.502;18.940;2022-09-24T00:20:58;0.77;;;0.77;;
65755;SDS011;52489;47.502;18.940;2022-09-24T00:22:01;0.73;;;0.73;;
65755;SDS011;52489;47.502;18.940;2022-09-24T00:23:05;0.57;;;0.57;;
65755;SDS011;52489;47.502;18.940;2022-09-24T00:24:11;1.05;;;0.82;;
65755;SDS011;52489;47.502;18.940;2022-09-24T00:25:44;1.48;;;0.73;;
65755;SDS011;52489;47.502;18.940;2022-09-24T00:27:07;0.60;;;0.60;;
65755;SDS011;52489;47.502;18.940;2022-09-24T00:28:11;0.60;;;0.60;;
65755;SDS011;52489;47.502;18.940;2022-09-24T00:29:19;1.62;;;0.70;;
65755;SDS011;52489;47.502;18.940;2022-09-24T00:30:25;0.65;;;0.65;;
65755;SDS011;52489;47.502;18.940;2022-09-24T00:31:28;1.10;;;0.93;;
65755;SDS011;52489;47.502;18.940;2022-09-24T00:32:31;0.57;;;0.57;;
65755;SDS011;52489;47.502;18.940;2022-09-24T00:33:34;0.80;;;0.80;;
65755;SDS011;52489;47.502;18.940;2022-09-24T00:34:37;0.85;;;0.85;;
65755;SDS011;52489;47.502;18.940;2022-09-24T00:35:40;0.60;;;0.60;;
65755;SDS011;52489;47.502;18.940;2022-09-24T00:36:43;0.62;;;0.62;;
65755;SDS011;52489;47.502;18.940;2022-09-24T00:37:48;2.00;;;0.82;;
65755;SDS011;52489;47.502;18.940;2022-09-24T00:38:52;0.80;;;0.80;;
65755;SDS011;52489;47.502;18.940;2022-09-24T00:39:57;0.57;;;0.57;;
65755;SDS011;52489;47.502;18.940;2022-09-24T00:41:00;0.52;;;0.52;;
65755;SDS011;52489;47.502;18.940;2022-09-24T00:42:03;1.25;;;0.90;;
65755;SDS011;52489;47.502;18.940;2022-09-24T00:43:26;0.55;;;0.55;;
65755;SDS011;52489;47.502;18.940;2022-09-24T00:45:47;0.50;;;0.50;;
65755;SDS011;52489;47.502;18.940;2022-09-24T00:46:51;0.50;;;0.50;;
65755;SDS011;52489;47.502;18.940;2022-09-24T00:47:54;0.50;;;0.50;;
65755;SDS011;52489;47.502;18.940;2022-09-24T00:50:24;0.50;;;0.50;;
65755;SDS011;52489;47.502;18.940;2022-09-24T00:51:32;0.47;;;0.47;;
65755;SDS011;52489;47.502;18.940;2022-09-24T00:52:37;0.60;;;0.60;;
65755;SDS011;52489;47.502;18.940;2022-09-24T00:53:47;0.80;;;0.80;;
65755;SDS011;52489;47.502;18.940;2022-09-24T00:54:52;0.40;;;0.40;;
65755;SDS011;52489;47.502;18.940;2022-09-24T00:55:56;0.65;;;0.65;;
65755;SDS011;52489;47.502;18.940;2022-09-24T00:57:00;0.60;;;0.60;;
65755;SDS011;52489;47.502;18.940;2022-09-24T00:58:07;0.60;;;0.60;;
65755;SDS011;52489;47.502;18.940;2022-09-24T00:59:11;0.65;;;0.65;;
65755;SDS011;52489;47.502;18.940;2022-09-24T01:00:18;0.77;;;0.77;;
65755;SDS011;52489;47.502;18.940;2022-09-24T01:01:23;0.80;;;0.80;;
65755;SDS011;52489;47.502;18.940;2022-09-24T01:02:27;0.75;;;0.75;;
65755;SDS011;52489;47.502;18.940;2022-09-24T01:03:30;0.80;;;0.80;;
65755;SDS011;52489;47.502;18.940;2022-09-24T01:04:39;0.98;;;0.98;;
65755;SDS011;52489;47.502;18.940;2022-09-24T01:05:42;0.50;;;0.50;;
65755;SDS011;52489;47.502;18.940;2022-09-24T01:06:46;0.70;;;0.70;;
65755;SDS011;52489;47.502;18.940;2022-09-24T01:07:50;0.75;;;0.75;;
65755;SDS011;52489;47.502;18.940;2022-09-24T01:08:53;0.70;;;0.70;;
65755;SDS011;52489;47.502;18.940;2022-09-24T01:09:58;0.75;;;0.75;;
65755;SDS011;52489;47.502;18.940;2022-09-24T01:15:23;0.55;;;0.55;;
65755;SDS011;52489;47.502;18.940;2022-09-24T01:19:06;1.12;;;0.68;;
65755;SDS011;52489;47.502;18.940;2022-09-24T01:21:41;0.88;;;0.80;;
65755;SDS011;52489;47.502;18.940;2022-09-24T01:25:56;0.65;;;0.57;;
65755;SDS011;52489;47.502;18.940;2022-09-24T01:30:12;0.80;;;0.80;;
65755;SDS011;52489;47.502;18.940;2022-09-24T01:32:56;0.70;;;0.70;;
65755;SDS011;52489;47.502;18.940;2022-09-24T01:34:15;1.02;;;0.90;;
65755;SDS011;52489;47.502;18.940;2022-09-24T01:35:31;0.70;;;0.70;;
65755;SDS011;52489;47.502;18.940;2022-09-24T01:36:40;0.70;;;0.70;;
65755;SDS011;52489;47.502;18.940;2022-09-24T01:37:46;0.60;;;0.60;;
65755;SDS011;52489;47.502;18.940;2022-09-24T01:38:54;0.88;;;0.50;;
65755;SDS011;52489;47.502;18.940;2022-09-24T01:39:59;0.47;;;0.47;;
65755;SDS011;52489;47.502;18.940;2022-09-24T01:41:05;0.50;;;0.50;;
65755;SDS011;52489;47.502;18.940;2022-09-24T01:42:10;0.85;;;0.80;;
65755;SDS011;52489;47.502;18.940;2022-09-24T01:43:17;0.55;;;0.55;;
65755;SDS011;52489;47.502;18.940;2022-09-24T01:44:24;1.95;;;0.95;;
65755;SDS011;52489;47.502;18.940;2022-09-24T01:45:27;0.57;;;0.57;;
65755;SDS011;52489;47.502;18.940;2022-09-24T01:46:33;1.17;;;0.62;;
65755;SDS011;52489;47.502;18.940;2022-09-24T01:47:40;0.57;;;0.57;;
65755;SDS011;52489;47.502;18.940;2022-09-24T01:48:43;0.60;;;0.60;;
65755;SDS011;52489;47.502;18.940;2022-09-24T01:49:46;0.65;;;0.65;;
65755;SDS011;52489;47.502;18.940;2022-09-24T01:50:59;0.75;;;0.75;;
65755;SDS011;52489;47.502;18.940;2022-09-24T01:52:14;0.60;;;0.60;;
65755;SDS011;52489;47.502;18.940;2022-09-24T01:53:21;0.57;;;0.57;;
65755;SDS011;52489;47.502;18.940;2022-09-24T01:54:33;0.85;;;0.80;;
65755;SDS011;52489;47.502;18.940;2022-09-24T01:55:41;0.62;;;0.62;;
65755;SDS011;52489;47.502;18.940;2022-09-24T01:56:52;0.68;;;0.68;;
65755;SDS011;52489;47.502;18.940;2022-09-24T01:58:22;0.70;;;0.70;;
65755;SDS011;52489;47.502;18.940;2022-09-24T02:00:46;1.00;;;0.85;;
65755;SDS011;52489;47.502;18.940;2022-09-24T02:03:24;0.50;;;0.50;;
65755;SDS011;52489;47.502;18.940;2022-09-24T02:04:32;0.45;;;0.45;;
65755;SDS011;52489;47.502;18.940;2022-09-24T02:05:55;0.85;;;0.85;;
65755;SDS011;52489;47.502;18.940;2022-09-24T02:07:00;0.68;;;0.68;;
65755;SDS011;52489;47.502;18.940;2022-09-24T02:08:17;1.27;;;0.80;;
65755;SDS011;52489;47.502;18.940;2022-09-24T02:09:34;0.90;;;0.80;;
65755;SDS011;52489;47.502;18.940;2022-09-24T02:10:47;0.95;;;0.70;;
65755;SDS011;52489;47.502;18.940;2022-09-24T02:11:55;0.80;;;0.80;;
65755;SDS011;52489;47.502;18.940;2022-09-24T02:13:09;1.15;;;1.05;;
65755;SDS011;52489;47.502;18.940;2022-09-24T02:14:15;2.83;;;0.70;;
65755;SDS011;52489;47.502;18.940;2022-09-24T02:15:20;0.60;;;0.60;;
65755;SDS011;52489;47.502;18.940;2022-09-24T02:16:38;1.30;;;1.20;;
65755;SDS011;52489;47.502;18.940;2022-09-24T02:17:51;0.45;;;0.45;;
65755;SDS011;52489;47.502;18.940;2022-09-24T02:18:59;0.70;;;0.70;;
65755;SDS011;52489;47.502;18.940;2022-09-24T02:20:07;1.00;;;1.00;;
65755;SDS011;52489;47.502;18.940;2022-09-24T02:21:16;1.05;;;0.98;;
65755;SDS011;52489;47.502;18.940;2022-09-24T02:22:22;1.02;;;1.00;;
65755;SDS011;52489;47.502;18.940;2022-09-24T02:23:26;1.10;;;1.00;;
65755;SDS011;52489;47.502;18.940;2022-09-24T02:24:37;0.60;;;0.60;;
65755;SDS011;52489;47.502;18.940;2022-09-24T02:25:50;0.80;;;0.80;;
65755;SDS011;52489;47.502;18.940;2022-09-24T02:26:59;1.00;;;1.00;;
65755;SDS011;52489;47.502;18.940;2022-09-24T02:28:02;0.70;;;0.70;;
65755;SDS011;52489;47.502;18.940;2022-09-24T02:29:05;0.70;;;0.70;;
65755;SDS011;52489;47.502;18.940;2022-09-24T02:30:08;0.85;;;0.85;;
65755;SDS011;52489;47.502;18.940;2022-09-24T02:31:13;1.05;;;0.90;;
65755;SDS011;52489;47.502;18.940;2022-09-24T02:32:20;1.70;;;0.88;;
65755;SDS011;52489;47.502;18.940;2022-09-24T02:33:24;1.05;;;0.98;;
65755;SDS011;52489;47.502;18.940;2022-09-24T02:34:54;0.82;;;0.82;;
65755;SDS011;52489;47.502;18.940;2022-09-24T02:36:04;0.90;;;0.88;;
65755;SDS011;52489;47.502;18.940;2022-09-24T02:37:10;1.12;;;0.98;;
65755;SDS011;52489;47.502;18.940;2022-09-24T02:38:15;0.80;;;0.80;;
65755;SDS011;52489;47.502;18.940;2022-09-24T02:39:20;0.75;;;0.75;;
65755;SDS011;52489;47.502;18.940;2022-09-24T02:40:23;1.20;;;1.17;;
65755;SDS011;52489;47.502;18.940;2022-09-24T02:41:27;1.12;;;1.05;;
65755;SDS011;52489;47.502;18.940;2022-09-24T02:42:31;1.12;;;1.10;;
65755;SDS011;52489;47.502;18.940;2022-09-24T02:43:34;0.80;;;0.80;;
65755;SDS011;52489;47.502;18.940;2022-09-24T02:44:37;1.37;;;1.27;;
65755;SDS011;52489;47.502;18.940;2022-09-24T02:45:40;1.02;;;0.85;;
65755;SDS011;52489;47.502;18.940;2022-09-24T02:46:44;0.98;;;0.98;;
65755;SDS011;52489;47.502;18.940;2022-09-24T02:47:47;0.95;;;0.93;;
65755;SDS011;52489;47.502;18.940;2022-09-24T02:48:50;0.80;;;0.80;;
65755;SDS011;52489;47.502;18.940;2022-09-24T02:49:53;0.80;;;0.80;;
65755;SDS011;52489;47.502;18.940;2022-09-24T02:50:57;1.02;;;0.98;;
65755;SDS011;52489;47.502;18.940;2022-09-24T02:52:00;0.98;;;0.80;;
65755;SDS011;52489;47.502;18.940;2022-09-24T02:53:03;1.20;;;1.10;;
65755;SDS011;52489;47.502;18.940;2022-09-24T02:54:06;0.82;;;0.82;;
65755;SDS011;52489;47.502;18.940;2022-09-24T02:55:09;0.82;;;0.80;;
65755;SDS011;52489;47.502;18.940;2022-09-24T02:56:12;1.27;;;0.98;;
65755;SDS011;52489;47.502;18.940;2022-09-24T02:57:16;1.25;;;1.20;;
65755;SDS011;52489;47.502;18.940;2022-09-24T02:58:19;0.82;;;0.82;;
65755;SDS011;52489;47.502;18.940;2022-09-24T02:59:22;0.80;;;0.80;;
65755;SDS011;52489;47.502;18.940;2022-09-24T03:00:25;1.25;;;1.15;;
65755;SDS011;52489;47.502;18.940;2022-09-24T03:01:28;1.17;;;0.90;;
65755;SDS011;52489;47.502;18.940;2022-09-24T03:02:31;1.23;;;1.10;;
65755;SDS011;52489;47.502;18.940;2022-09-24T03:03:34;1.23;;;1.10;;
65755;SDS011;52489;47.502;18.940;2022-09-24T03:04:37;1.92;;;1.10;;
65755;SDS011;52489;47.502;18.940;2022-09-24T03:05:40;0.82;;;0.82;;
65755;SDS011;52489;47.502;18.940;2022-09-24T03:06:43;0.73;;;0.73;;
65755;SDS011;52489;47.502;18.940;2022-09-24T03:07:46;1.20;;;1.10;;
65755;SDS011;52489;47.502;18.940;2022-09-24T03:08:53;1.77;;;1.25;;
65755;SDS011;52489;47.502;18.940;2022-09-24T03:09:56;2.30;;;1.58;;
65755;SDS011;52489;47.502;18.940;2022-09-24T03:10:59;2.35;;;1.48;;
65755;SDS011;52489;47.502;18.940;2022-09-24T03:12:02;2.58;;;1.87;;
65755;SDS011;52489;47.502;18.940;2022-09-24T03:13:06;6.50;;;2.30;;
65755;SDS011;52489;47.502;18.940;2022-09-24T03:14:09;6.00;;;2.33;;
65755;SDS011;52489;47.502;18.940;2022-09-24T03:15:12;3.30;;;1.80;;
65755;SDS011;52489;47.502;18.940;2022-09-24T03:16:15;3.65;;;1.85;;
65755;SDS011;52489;47.502;18.940;2022-09-24T03:17:19;2.22;;;1.75;;
65755;SDS011;52489;47.502;18.940;2022-09-24T03:18:22;5.72;;;2.12;;
65755;SDS011;52489;47.502;18.940;2022-09-24T03:19:25;5.50;;;2.42;;
65755;SDS011;52489;47.502;18.940;2022-09-24T03:20:28;2.65;;;2.03;;
65755;SDS011;52489;47.502;18.940;2022-09-24T03:21:31;2.87;;;1.58;;
65755;SDS011;52489;47.502;18.940;2022-09-24T03:22:34;3.45;;;1.92;;
65755;SDS011;52489;47.502;18.940;2022-09-24T03:23:37;2.70;;;2.03;;
65755;SDS011;52489;47.502;18.940;2022-09-24T03:24:41;3.90;;;2.25;;
65755;SDS011;52489;47.502;18.940;2022-09-24T03:25:43;2.47;;;1.55;;
65755;SDS011;52489;47.502;18.940;2022-09-24T03:26:46;2.00;;;1.80;;
65755;SDS011;52489;47.502;18.940;2022-09-24T03:27:49;2.58;;;1.27;;
65755;SDS011;52489;47.502;18.940;2022-09-24T03:28:52;1.98;;;1.40;;
65755;SDS011;52489;47.502;18.940;2022-09-24T03:29:55;2.33;;;1.50;;
65755;SDS011;52489;47.502;18.940;2022-09-24T03:31:16;1.60;;;1.33;;
65755;SDS011;52489;47.502;18.940;2022-09-24T03:32:20;2.37;;;1.25;;
65755;SDS011;52489;47.502;18.940;2022-09-24T03:33:23;1.48;;;1.37;;
65755;SDS011;52489;47.502;18.940;2022-09-24T03:34:26;2.25;;;1.10;;
65755;SDS011;52489;47.502;18.940;2022-09-24T03:35:29;1.62;;;1.10;;
65755;SDS011;52489;47.502;18.940;2022-09-24T03:36:32;1.12;;;1.00;;
65755;SDS011;52489;47.502;18.940;2022-09-24T03:37:35;0.90;;;0.90;;
65755;SDS011;52489;47.502;18.940;2022-09-24T03:38:39;2.33;;;1.00;;
65755;SDS011;52489;47.502;18.940;2022-09-24T03:39:45;1.90;;;1.45;;
65755;SDS011;52489;47.502;18.940;2022-09-24T03:40:47;1.37;;;1.27;;
65755;SDS011;52489;47.502;18.940;2022-09-24T03:41:50;1.12;;;0.90;;
65755;SDS011;52489;47.502;18.940;2022-09-24T03:42:53;0.90;;;0.90;;
65755;SDS011;52489;47.502;18.940;2022-09-24T03:43:56;1.12;;;1.02;;
65755;SDS011;52489;47.502;18.940;2022-09-24T03:44:59;0.90;;;0.90;;
65755;SDS011;52489;47.502;18.940;2022-09-24T03:46:03;1.12;;;1.00;;
65755;SDS011;52489;47.502;18.940;2022-09-24T03:47:09;1.35;;;0.98;;
65755;SDS011;52489;47.502;18.940;2022-09-24T03:48:12;1.80;;;1.17;;
65755;SDS011;52489;47.502;18.940;2022-09-24T03:49:15;1.52;;;1.05;;
65755;SDS011;52489;47.502;18.940;2022-09-24T03:50:18;0.70;;;0.70;;
65755;SDS011;52489;47.502;18.940;2022-09-24T03:51:21;2.17;;;1.73;;
65755;SDS011;52489;47.502;18.940;2022-09-24T03:52:24;3.72;;;1.23;;
65755;SDS011;52489;47.502;18.940;2022-09-24T03:53:27;0.90;;;0.90;;
65755;SDS011;52489;47.502;18.940;2022-09-24T03:54:30;1.05;;;1.00;;
65755;SDS011;52489;47.502;18.940;2022-09-24T03:55:33;1.08;;;0.95;;
65755;SDS011;52489;47.502;18.940;2022-09-24T03:56:37;1.00;;;0.82;;
65755;SDS011;52489;47.502;18.940;2022-09-24T03:57:41;1.48;;;0.90;;
65755;SDS011;52489;47.502;18.940;2022-09-24T03:58:43;0.77;;;0.70;;
65755;SDS011;52489;47.502;18.940;2022-09-24T03:59:48;0.80;;;0.80;;
65755;SDS011;52489;47.502;18.940;2022-09-24T04:00:54;0.80;;;0.80;;
65755;SDS011;52489;47.502;18.940;2022-09-24T04:01:58;0.98;;;0.90;;
65755;SDS011;52489;47.502;18.940;2022-09-24T04:03:02;0.82;;;0.82;;
65755;SDS011;52489;47.502;18.940;2022-09-24T04:04:05;4.57;;;1.10;;
65755;SDS011;52489;47.502;18.940;2022-09-24T04:05:07;1.10;;;1.10;;
65755;SDS011;52489;47.502;18.940;2022-09-24T04:06:10;1.00;;;0.95;;
65755;SDS011;52489;47.502;18.940;2022-09-24T04:07:14;0.80;;;0.80;;
65755;SDS011;52489;47.502;18.940;2022-09-24T04:08:20;0.77;;;0.77;;
65755;SDS011;52489;47.502;18.940;2022-09-24T04:09:25;3.92;;;0.98;;
65755;SDS011;52489;47.502;18.940;2022-09-24T04:10:28;1.00;;;0.90;;
65755;SDS011;52489;47.502;18.940;2022-09-24T04:11:31;0.90;;;0.90;;
65755;SDS011;52489;47.502;18.940;2022-09-24T04:12:36;0.85;;;0.85;;
65755;SDS011;52489;47.502;18.940;2022-09-24T04:13:39;1.52;;;1.10;;
65755;SDS011;52489;47.502;18.940;2022-09-24T04:14:41;1.00;;;0.93;;
65755;SDS011;52489;47.502;18.940;2022-09-24T04:15:44;0.88;;;0.88;;
65755;SDS011;52489;47.502;18.940;2022-09-24T04:16:48;0.85;;;0.85;;
65755;SDS011;52489;47.502;18.940;2022-09-24T04:17:52;1.58;;;1.20;;
65755;SDS011;52489;47.502;18.940;2022-09-24T04:18:56;0.85;;;0.80;;
65755;SDS011;52489;47.502;18.940;2022-09-24T04:19:59;1.27;;;0.90;;
65755;SDS011;52489;47.502;18.940;2022-09-24T04:21:03;1.02;;;1.00;;
65755;SDS011;52489;47.502;18.940;2022-09-24T04:22:06;2.55;;;1.27;;
65755;SDS011;52489;47.502;18.940;2022-09-24T04:23:09;1.20;;;1.12;;
65755;SDS011;52489;47.502;18.940;2022-09-24T04:24:12;0.90;;;0.90;;
65755;SDS011;52489;47.502;18.940;2022-09-24T04:25:15;1.60;;;0.98;;
65755;SDS011;52489;47.502;18.940;2022-09-24T04:26:18;0.77;;;0.77;;
65755;SDS011;52489;47.502;18.940;2022-09-24T04:27:22;0.95;;;0.95;;
65755;SDS011;52489;47.502;18.940;2022-09-24T04:28:25;2.90;;;1.65;;
65755;SDS011;52489;47.502;18.940;2022-09-24T04:29:28;1.20;;;1.10;;
65755;SDS011;52489;47.502;18.940;2022-09-24T04:30:32;1.17;;;1.12;;
65755;SDS011;52489;47.502;18.940;2022-09-24T04:31:36;1.05;;;0.98;;
65755;SDS011;52489;47.502;18.940;2022-09-24T04:32:41;1.08;;;0.98;;
65755;SDS011;52489;47.502;18.940;2022-09-24T04:33:44;0.98;;;0.80;;
65755;SDS011;52489;47.502;18.940;2022-09-24T04:34:47;1.10;;;1.00;;
65755;SDS011;52489;47.502;18.940;2022-09-24T04:35:50;1.58;;;1.17;;
65755;SDS011;52489;47.502;18.940;2022-09-24T04:36:53;1.15;;;1.00;;
65755;SDS011;52489;47.502;18.940;2022-09-24T04:37:56;1.65;;;1.17;;
65755;SDS011;52489;47.502;18.940;2022-09-24T04:39:00;1.00;;;0.80;;
65755;SDS011;52489;47.502;18.940;2022-09-24T04:40:05;1.12;;;1.12;;
65755;SDS011;52489;47.502;18.940;2022-09-24T04:41:11;1.23;;;1.02;;
65755;SDS011;52489;47.502;18.940;2022-09-24T04:42:17;0.80;;;0.80;;
65755;SDS011;52489;47.502;18.940;2022-09-24T04:43:20;0.88;;;0.88;;
65755;SDS011;52489;47.502;18.940;2022-09-24T04:44:23;0.70;;;0.70;;
65755;SDS011;52489;47.502;18.940;2022-09-24T04:45:30;0.98;;;0.93;;
65755;SDS011;52489;47.502;18.940;2022-09-24T04:46:33;1.42;;;0.82;;
65755;SDS011;52489;47.502;18.940;2022-09-24T04:47:37;1.45;;;0.98;;
65755;SDS011;52489;47.502;18.940;2022-09-24T04:48:42;0.70;;;0.70;;
65755;SDS011;52489;47.502;18.940;2022-09-24T04:49:45;1.90;;;1.42;;
65755;SDS011;52489;47.502;18.940;2022-09-24T04:50:48;1.20;;;1.10;;
65755;SDS011;52489;47.502;18.940;2022-09-24T04:51:51;1.17;;;1.08;;
65755;SDS011;52489;47.502;18.940;2022-09-24T04:52:54;0.80;;;0.80;;
65755;SDS011;52489;47.502;18.940;2022-09-24T04:53:57;0.80;;;0.80;;
65755;SDS011;52489;47.502;18.940;2022-09-24T04:55:03;0.90;;;0.90;;
65755;SDS011;52489;47.502;18.940;2022-09-24T04:56:07;1.23;;;1.10;;
65755;SDS011;52489;47.502;18.940;2022-09-24T04:57:13;1.77;;;0.93;;
65755;SDS011;52489;47.502;18.940;2022-09-24T04:58:16;1.65;;;1.02;;
65755;SDS011;52489;47.502;18.940;2022-09-24T04:59:19;1.23;;;1.12;;
65755;SDS011;52489;47.502;18.940;2022-09-24T05:00:24;0.80;;;0.80;;
65755;SDS011;52489;47.502;18.940;2022-09-24T05:01:27;0.90;;;0.90;;
65755;SDS011;52489;47.502;18.940;2022-09-24T05:02:30;1.12;;;1.02;;
65755;SDS011;52489;47.502;18.940;2022-09-24T05:03:33;0.80;;;0.80;;
65755;SDS011;52489;47.502;18.940;2022-09-24T05:04:36;1.20;;;1.10;;
65755;SDS011;52489;47.502;18.940;2022-09-24T05:05:39;1.77;;;1.30;;
65755;SDS011;52489;47.502;18.940;2022-09-24T05:06:42;1.20;;;1.10;;
65755;SDS011;52489;47.502;18.940;2022-09-24T05:07:47;1.60;;;1.08;;
65755;SDS011;52489;47.502;18.940;2022-09-24T05:08:56;0.90;;;0.90;;
65755;SDS011;52489;47.502;18.940;2022-09-24T05:09:59;1.35;;;1.05;;
65755;SDS011;52489;47.502;18.940;2022-09-24T05:11:03;0.88;;;0.88;;
65755;SDS011;52489;47.502;18.940;2022-09-24T05:12:06;0.82;;;0.82;;
65755;SDS011;52489;47.502;18.940;2022-09-24T05:13:08;1.05;;;0.80;;
65755;SDS011;52489;47.502;18.940;2022-09-24T05:14:11;1.08;;;0.98;;
65755;SDS011;52489;47.502;18.940;2022-09-24T05:15:14;0.95;;;0.95;;
65755;SDS011;52489;47.502;18.940;2022-09-24T05:16:17;1.12;;;1.02;;
65755;SDS011;52489;47.502;18.940;2022-09-24T05:17:20;1.08;;;0.98;;
65755;SDS011;52489;47.502;18.940;2022-09-24T05:18:23;3.22;;;1.67;;
65755;SDS011;52489;47.502;18.940;2022-09-24T05:19:26;1.15;;;1.05;;
65755;SDS011;52489;47.502;18.940;2022-09-24T05:20:28;1.10;;;1.00;;
65755;SDS011;52489;47.502;18.940;2022-09-24T05:21:31;3.42;;;1.15;;
65755;SDS011;52489;47.502;18.940;2022-09-24T05:22:34;0.75;;;0.75;;
65755;SDS011;52489;47.502;18.940;2022-09-24T05:23:38;1.50;;;1.37;;
65755;SDS011;52489;47.502;18.940;2022-09-24T05:24:41;1.45;;;1.20;;
65755;SDS011;52489;47.502;18.940;2022-09-24T05:25:44;1.05;;;1.00;;
65755;SDS011;52489;47.502;18.940;2022-09-24T05:27:07;0.70;;;0.70;;
65755;SDS011;52489;47.502;18.940;2022-09-24T05:28:11;1.27;;;1.17;;
65755;SDS011;52489;47.502;18.940;2022-09-24T05:29:14;1.30;;;1.10;;
65755;SDS011;52489;47.502;18.940;2022-09-24T05:30:17;3.95;;;1.00;;
65755;SDS011;52489;47.502;18.940;2022-09-24T05:31:21;0.88;;;0.88;;
65755;SDS011;52489;47.502;18.940;2022-09-24T05:32:24;1.90;;;1.05;;
65755;SDS011;52489;47.502;18.940;2022-09-24T05:33:26;1.35;;;1.02;;
65755;SDS011;52489;47.502;18.940;2022-09-24T05:34:30;2.40;;;1.37;;
65755;SDS011;52489;47.502;18.940;2022-09-24T05:35:33;1.30;;;1.20;;
65755;SDS011;52489;47.502;18.940;2022-09-24T05:36:36;1.52;;;0.90;;
65755;SDS011;52489;47.502;18.940;2022-09-24T05:37:38;0.95;;;0.95;;
65755;SDS011;52489;47.502;18.940;2022-09-24T05:38:41;2.75;;;0.90;;
65755;SDS011;52489;47.502;18.940;2022-09-24T05:39:44;1.02;;;1.00;;
65755;SDS011;52489;47.502;18.940;2022-09-24T05:40:47;1.30;;;1.20;;
65755;SDS011;52489;47.502;18.940;2022-09-24T05:41:50;1.25;;;1.12;;
65755;SDS011;52489;47.502;18.940;2022-09-24T05:43:00;1.50;;;1.40;;
65755;SDS011;52489;47.502;18.940;2022-09-24T05:44:03;1.08;;;1.08;;
65755;SDS011;52489;47.502;18.940;2022-09-24T05:45:11;0.90;;;0.90;;
65755;SDS011;52489;47.502;18.940;2022-09-24T05:46:19;0.90;;;0.90;;
65755;SDS011;52489;47.502;18.940;2022-09-24T05:47:22;1.05;;;1.05;;
65755;SDS011;52489;47.502;18.940;2022-09-24T05:48:25;1.00;;;0.90;;
65755;SDS011;52489;47.502;18.940;2022-09-24T05:49:27;1.10;;;1.00;;
65755;SDS011;52489;47.502;18.940;2022-09-24T05:50:30;0.98;;;0.98;;
65755;SDS011;52489;47.502;18.940;2022-09-24T05:51:36;1.08;;;0.80;;
65755;SDS011;52489;47.502;18.940;2022-09-24T05:52:39;1.55;;;0.98;;
65755;SDS011;52489;47.502;18.940;2022-09-24T05:53:42;2.22;;;1.10;;
65755;SDS011;52489;47.502;18.940;2022-09-24T05:54:46;1.02;;;0.98;;
65755;SDS011;52489;47.502;18.940;2022-09-24T05:55:48;4.05;;;0.88;;
65755;SDS011;52489;47.502;18.940;2022-09-24T05:56:51;0.80;;;0.80;;
65755;SDS011;52489;47.502;18.940;2022-09-24T05:57:54;0.90;;;0.90;;
65755;SDS011;52489;47.502;18.940;2022-09-24T05:58:57;1.30;;;1.20;;
65755;SDS011;52489;47.502;18.940;2022-09-24T06:00:03;0.88;;;0.88;;
65755;SDS011;52489;47.502;18.940;2022-09-24T06:01:07;1.10;;;0.90;;
65755;SDS011;52489;47.502;18.940;2022-09-24T06:02:10;1.08;;;0.95;;
65755;SDS011;52489;47.502;18.940;2022-09-24T06:03:15;1.10;;;1.10;;
65755;SDS011;52489;47.502;18.940;2022-09-24T06:04:20;1.10;;;1.00;;
65755;SDS011;52489;47.502;18.940;2022-09-24T06:05:23;2.75;;;0.93;;
65755;SDS011;52489;47.502;18.940;2022-09-24T06:06:26;1.20;;;1.10;;
65755;SDS011;52489;47.502;18.940;2022-09-24T06:07:30;1.00;;;1.00;;
65755;SDS011;52489;47.502;18.940;2022-09-24T06:08:33;2.30;;;1.12;;
65755;SDS011;52489;47.502;18.940;2022-09-24T06:09:35;1.30;;;1.20;;
65755;SDS011;52489;47.502;18.940;2022-09-24T06:10:38;1.05;;;0.98;;
65755;SDS011;52489;47.502;18.940;2022-09-24T06:11:41;0.90;;;0.90;;
65755;SDS011;52489;47.502;18.940;2022-09-24T06:12:44;0.88;;;0.85;;
65755;SDS011;52489;47.502;18.940;2022-09-24T06:13:48;1.40;;;1.17;;
65755;SDS011;52489;47.502;18.940;2022-09-24T06:14:54;1.20;;;1.10;;
65755;SDS011;52489;47.502;18.940;2022-09-24T06:16:01;1.52;;;1.10;;
65755;SDS011;52489;47.502;18.940;2022-09-24T06:17:05;1.35;;;1.08;;
65755;SDS011;52489;47.502;18.940;2022-09-24T06:18:09;1.40;;;0.98;;
65755;SDS011;52489;47.502;18.940;2022-09-24T06:19:12;1.00;;;1.00;;
65755;SDS011;52489;47.502;18.940;2022-09-24T06:20:15;0.85;;;0.85;;
65755;SDS011;52489;47.502;18.940;2022-09-24T06:21:18;1.62;;;1.15;;
65755;SDS011;52489;47.502;18.940;2022-09-24T06:22:21;0.98;;;0.98;;
65755;SDS011;52489;47.502;18.940;2022-09-24T06:23:30;2.33;;;1.48;;
65755;SDS011;52489;47.502;18.940;2022-09-24T06:24:32;1.33;;;1.17;;
65755;SDS011;52489;47.502;18.940;2022-09-24T06:25:36;2.53;;;1.17;;
65755;SDS011;52489;47.502;18.940;2022-09-24T06:26:39;2.87;;;1.30;;
65755;SDS011;52489;47.502;18.940;2022-09-24T06:27:42;9.43;;;1.10;;
65755;SDS011;52489;47.502;18.940;2022-09-24T06:28:45;1.95;;;1.10;;
65755;SDS011;52489;47.502;18.940;2022-09-24T06:29:48;1.05;;;0.98;;
65755;SDS011;52489;47.502;18.940;2022-09-24T06:30:52;1.27;;;1.00;;
65755;SDS011;52489;47.502;18.940;2022-09-24T06:31:55;1.55;;;1.35;;
65755;SDS011;52489;47.502;18.940;2022-09-24T06:33:05;1.20;;;1.10;;
65755;SDS011;52489;47.502;18.940;2022-09-24T06:34:11;1.55;;;1.33;;
65755;SDS011;52489;47.502;18.940;2022-09-24T06:35:14;4.30;;;1.05;;
65755;SDS011;52489;47.502;18.940;2022-09-24T06:36:17;2.20;;;1.50;;
65755;SDS011;52489;47.502;18.940;2022-09-24T06:37:19;1.55;;;1.08;;
65755;SDS011;52489;47.502;18.940;2022-09-24T06:38:22;2.47;;;1.30;;
65755;SDS011;52489;47.502;18.940;2022-09-24T06:39:25;1.35;;;1.10;;
65755;SDS011;52489;47.502;18.940;2022-09-24T06:40:28;1.48;;;1.17;;
65755;SDS011;52489;47.502;18.940;2022-09-24T06:41:38;1.00;;;1.00;;
65755;SDS011;52489;47.502;18.940;2022-09-24T06:42:41;1.23;;;1.00;;
65755;SDS011;52489;47.502;18.940;2022-09-24T06:43:44;7.62;;;1.30;;
65755;SDS011;52489;47.502;18.940;2022-09-24T06:44:47;2.53;;;1.00;;
65755;SDS011;52489;47.502;18.940;2022-09-24T06:45:52;1.73;;;1.20;;
65755;SDS011;52489;47.502;18.940;2022-09-24T06:46:56;1.27;;;1.17;;